Stations météo

réclame
Mon MeteoGroup
Idre, Suède (2307): Température de l'air & dewpoint: 28.07.2020 13:00:00 - 03.08.2020 13:00:00 (CEST)Idre, Suède (2307): Vitesse du vent & gusts: 28.07.2020 13:00:00 - 03.08.2020 13:00:00 (CEST)Idre, Suède (2307): Direction du vent: 28.07.2020 13:00:00 - 03.08.2020 13:00:00 (CEST)
Date & Time tt [°C] td [°C] ff [km/h] ff [knt] fx [km/h] fx [knt] dd
03.08.2020 13:00:00 11,2 8,5 14 8 22 12 WSW
03.08.2020 12:00:00 12,5 7,6 9 5 19 10 WNW
03.08.2020 11:00:00 12,7 6,3 7 4 16 9 W
03.08.2020 10:00:00 11,4 7,5 9 5 18 10 SW
03.08.2020 09:00:00 10,4 7,6 13 7 21 11 SSW
03.08.2020 08:00:00 9,8 8,1 13 7 19 11 SSW
03.08.2020 07:00:00 9,7 8,8 16 9 25 13 SSW
03.08.2020 06:00:00 9,9 8,7 11 6 17 9 S
03.08.2020 05:00:00 9,7 8,3 9 5 17 9 SE
03.08.2020 04:00:00 10,2 9,3 11 6 18 10 SSE
03.08.2020 03:00:00 10,7 8,6 9 5 18 10 S
03.08.2020 02:00:00 11,3 9,9 14 7 18 10 SSW
03.08.2020 01:00:00 12,0 10,6 11 6 16 9 SSW
03.08.2020 00:00:00 12,1 10,5 10 5 16 8 SSW
02.08.2020 23:00:00 12,3 10,9 12 7 19 10 SW
02.08.2020 22:00:00 12,8 10,5 12 6 19 11 S
02.08.2020 21:00:00 14,0 9,8 14 8 21 11 SSW
02.08.2020 20:00:00 14,7 8,6 7 4 11 6 S
02.08.2020 19:00:00 15,0 9,1 10 5 26 14 SW
02.08.2020 18:00:00 15,7 9,1 16 9 24 13 SSW
02.08.2020 17:00:00 17,3 8,7 17 9 25 14 SSW
02.08.2020 16:00:00 16,5 8,2 12 6 18 10 SE
02.08.2020 15:00:00 16,8 6,9 12 6 24 13 SSW
02.08.2020 14:00:00 15,6 7,4 8 5 19 11 SSW
02.08.2020 13:00:00 13,6 7,4 16 9 28 15 SSW
02.08.2020 12:00:00 13,9 7,2 23 12 35 19 SW
02.08.2020 11:00:00 15,9 6,6 22 12 35 19 SW
02.08.2020 10:00:00 15,2 7,2 16 9 31 17 SW
02.08.2020 09:00:00 14,0 7,5 14 8 21 12 SW
02.08.2020 08:00:00 12,2 6,0 11 6 21 11 SSW
02.08.2020 07:00:00 11,4 5,9 12 6 21 11 SSW
02.08.2020 06:00:00 11,3 4,7 14 8 22 12 SSW
02.08.2020 05:00:00 11,3 5,8 14 8 26 14 SW
02.08.2020 04:00:00 11,3 6,4 10 6 23 13 S
02.08.2020 03:00:00 12,1 7,4 14 8 29 15 SW
02.08.2020 02:00:00 12,8 7,5 17 9 26 14 SW
02.08.2020 01:00:00 13,9 8,9 17 9 28 15 SW
02.08.2020 00:00:00 14,3 9,1 18 10 27 14 SW
01.08.2020 23:00:00 15,1 9,2 21 11 31 17 SW
01.08.2020 22:00:00 15,6 9,3 19 11 30 16 SW
01.08.2020 21:00:00 16,9 8,8 18 10 36 19 SW
01.08.2020 20:00:00 18,5 8,2 20 11 34 18 SSW
01.08.2020 19:00:00 18,5 7,6 16 8 28 15 SSW
01.08.2020 18:00:00 19,0 7,7 14 8 35 19 SW
01.08.2020 17:00:00 20,0 8,7 21 12 37 20 SW
01.08.2020 16:00:00 20,6 7,2 22 12 33 18 SSW
01.08.2020 15:00:00 21,0 7,9 16 9 28 15 SW
01.08.2020 14:00:00 20,3 7,3 17 9 30 16 S
01.08.2020 13:00:00 18,6 7,4 19 10 31 17 WSW
01.08.2020 12:00:00 18,8 8,2 16 9 27 15 SSW
01.08.2020 11:00:00 17,7 9,6 16 9 22 12 S
01.08.2020 10:00:00 17,3 9,5 10 5 16 8 S
01.08.2020 09:00:00 15,9 8,9 9 5 15 8 S
01.08.2020 08:00:00 15,1 8,6 9 5 16 9 SSW
01.08.2020 07:00:00 14,0 8,2 10 6 16 8 SSW
01.08.2020 06:00:00 13,3 7,5 12 6 17 9 SSW
01.08.2020 05:00:00 13,0 7,4 12 7 15 8 SSW
01.08.2020 04:00:00 13,2 7,5 10 5 16 9 SSW
01.08.2020 03:00:00 13,6 6,8 10 5 16 9 SW
01.08.2020 02:00:00 13,7 6,1 8 4 16 9 SSW
01.08.2020 01:00:00 13,7 6,5 11 6 16 9 S
01.08.2020 00:00:00 13,9 6,5 11 6 14 8 SSE
31.07.2020 23:00:00 14,7 6,5 11 6 16 8 SSE
31.07.2020 22:00:00 15,0 6,5 11 6 16 9 S
31.07.2020 21:00:00 16,1 6,2 8 4 15 8 S
31.07.2020 20:00:00 17,3 6,2 7 4 12 6 S
31.07.2020 19:00:00 17,2 4,8 3 2 11 6 ESE
31.07.2020 18:00:00 17,9 5,5 0 0 17 9 N
31.07.2020 17:00:00 17,4 6,0 6 3 16 8 ENE
31.07.2020 16:00:00 17,4 6,3 5 3 21 12 NE
31.07.2020 15:00:00 16,0 6,1 10 5 23 12 N
31.07.2020 14:00:00 15,4 6,7 9 5 24 13 N
31.07.2020 13:00:00 13,8 7,1 13 7 25 13 N
31.07.2020 12:00:00 12,8 7,7 16 9 24 13 NNE
31.07.2020 11:00:00 12,8 7,3 17 9 28 15 NNE
31.07.2020 10:00:00 12,5 7,6 21 11 - - NNE
31.07.2020 09:00:00 12,2 7,9 16 9 30 16 NNW
31.07.2020 08:00:00 11,0 8,0 22 12 29 15 N
31.07.2020 07:00:00 10,1 8,0 23 12 31 17 NNW
31.07.2020 06:00:00 9,8 7,9 21 12 36 19 NNW
31.07.2020 05:00:00 10,3 7,7 26 14 49 26 N
31.07.2020 04:00:00 10,3 7,9 35 19 48 26 N
31.07.2020 03:00:00 10,0 7,8 29 16 45 25 N
31.07.2020 02:00:00 10,6 7,8 37 20 48 26 N
31.07.2020 01:00:00 10,4 7,8 29 15 48 26 N
31.07.2020 00:00:00 10,2 8,0 32 17 56 30 NNW
30.07.2020 23:00:00 10,3 7,9 42 23 61 33 N
30.07.2020 22:00:00 10,5 7,9 42 23 56 30 NNW
30.07.2020 21:00:00 10,7 8,1 39 21 60 32 NNW
30.07.2020 20:00:00 11,1 8,3 37 20 64 35 NNW
30.07.2020 19:00:00 11,5 8,2 32 18 62 34 NNW
30.07.2020 18:00:00 11,7 8,2 35 19 50 27 NNW
30.07.2020 17:00:00 11,2 8,6 35 19 57 31 NNW
30.07.2020 16:00:00 11,4 8,3 39 21 49 26 NNW
30.07.2020 15:00:00 11,3 8,7 30 16 46 25 NW
30.07.2020 14:00:00 10,5 8,8 31 17 44 24 NW
30.07.2020 13:00:00 10,5 8,4 34 18 50 27 NNW
30.07.2020 12:00:00 11,4 7,3 35 19 50 27 NNW
30.07.2020 11:00:00 12,3 7,2 27 15 42 23 NNW
30.07.2020 10:00:00 11,0 7,3 27 14 36 19 NNW
30.07.2020 09:00:00 10,9 7,6 26 14 38 21 NNW
30.07.2020 08:00:00 9,7 7,3 29 16 39 21 NNW
30.07.2020 07:00:00 9,3 7,2 26 14 36 19 NNW
30.07.2020 06:00:00 8,5 7,0 28 15 37 20 NNW
30.07.2020 05:00:00 8,5 6,3 21 11 32 17 NNW
30.07.2020 04:00:00 8,3 6,6 16 9 21 11 NNW
30.07.2020 03:00:00 9,3 7,1 12 6 16 8 NW
30.07.2020 02:00:00 8,7 7,3 11 6 12 6 NNW
30.07.2020 01:00:00 9,3 6,6 5 3 6 4 NW
30.07.2020 00:00:00 9,3 5,8 4 2 6 3 WNW
29.07.2020 23:00:00 9,4 7,0 6 3 10 5 SE
29.07.2020 22:00:00 9,8 7,1 6 3 10 6 SE
29.07.2020 21:00:00 10,1 6,3 9 5 16 9 S
29.07.2020 20:00:00 10,5 5,9 11 6 19 10 S
29.07.2020 19:00:00 11,8 6,3 8 5 26 14 S
29.07.2020 18:00:00 12,1 8,2 14 8 27 15 SSW
29.07.2020 17:00:00 12,0 6,9 16 9 26 14 S
29.07.2020 16:00:00 12,0 6,5 10 6 27 15 SE
29.07.2020 15:00:00 12,0 6,9 12 7 22 12 SSE
29.07.2020 14:00:00 10,2 7,4 13 7 26 14 SE
29.07.2020 13:00:00 10,4 8,7 16 9 24 13 SSE
29.07.2020 12:00:00 9,4 8,2 16 9 23 12 SSE
29.07.2020 11:00:00 9,0 8,1 11 6 18 10 SSE
29.07.2020 10:00:00 8,3 7,5 13 7 20 11 S
29.07.2020 09:00:00 7,4 7,0 13 7 24 13 SSW
29.07.2020 08:00:00 7,2 6,8 18 10 28 15 SSW
29.07.2020 07:00:00 7,0 6,9 12 6 16 9 S
29.07.2020 06:00:00 7,0 6,9 11 6 19 10 S
29.07.2020 05:00:00 7,4 7,3 16 8 29 16 S
29.07.2020 04:00:00 8,2 8,1 17 9 24 13 S
29.07.2020 03:00:00 8,4 8,3 14 7 21 12 S
29.07.2020 02:00:00 8,5 8,4 15 8 22 12 S
29.07.2020 01:00:00 9,1 9,0 11 6 22 12 SE
29.07.2020 00:00:00 10,0 9,8 18 10 34 19 SE
28.07.2020 23:00:00 10,2 10,0 23 12 42 23 ESE
28.07.2020 22:00:00 10,2 10,0 27 15 40 22 ESE
28.07.2020 21:00:00 10,0 9,5 25 14 38 20 ESE
28.07.2020 20:00:00 9,5 9,0 24 13 38 20 ESE
28.07.2020 19:00:00 9,5 9,0 24 13 45 24 ESE
28.07.2020 18:00:00 9,8 9,2 29 16 53 29 ESE
28.07.2020 17:00:00 10,0 9,2 24 13 44 24 SE
28.07.2020 16:00:00 10,7 8,8 28 15 42 23 SE
28.07.2020 15:00:00 11,6 10,0 27 15 46 25 SE
28.07.2020 14:00:00 11,4 9,8 27 14 44 24 SE
28.07.2020 13:00:00 10,2 9,1 32 17 51 28 SE

tt = Température de l'air
td = dewpoint
ff = Vitesse du vent
fx = gusts
dd = Direction du vent

stations d'obs. à proximité